Time;durP1;ratioP1;P1;durP2;ratioP2;P2;SDS_P1;SDS_P2;PMS_P1;PMS_P2;Temp;Humidity;BMP_temperature;BMP_pressure;BME280_temperature;BME280_humidity;BME280_pressure;Samples;Min_cycle;Max_cycle;Signal;HPM_P1;HPM_P2
2023/12/19 00:00:16;;;;;;;5.20;2.20;;;;;;;7.01;54.05;97420.71;108124;1281;22594;-79
2023/12/19 00:03:05;;;;;;;5.20;2.80;;;;;;;6.95;54.31;97413.85;108091;1279;22527;-79
2023/12/19 00:05:34;;;;;;;5.10;2.70;;;;;;;6.93;54.13;97416.45;108130;1281;27936;-79
2023/12/19 00:08:03;;;;;;;4.80;2.00;;;;;;;6.90;54.50;97409.08;108129;1281;23217;-79
2023/12/19 00:10:34;;;;;;;3.60;2.50;;;;;;;6.86;54.56;97397.81;108124;1274;22527;-79
2023/12/19 00:13:03;;;;;;;6.00;2.50;;;;;;;6.84;54.21;97401.41;108115;1281;22655;-79
2023/12/19 00:15:36;;;;;;;4.50;2.10;;;;;;;6.86;54.23;97401.77;108117;1280;24176;-79
2023/12/19 00:18:05;;;;;;;4.90;2.30;;;;;;;6.85;54.24;97406.13;108185;1275;23840;-79
2023/12/19 00:20:33;;;;;;;4.20;2.30;;;;;;;6.87;53.92;97401.68;108098;1281;24060;-79
2023/12/19 00:23:06;;;;;;;4.40;2.40;;;;;;;6.90;53.43;97401.42;108124;1281;23790;-79
2023/12/19 00:25:37;;;;;;;2.80;2.20;;;;;;;6.95;52.97;97390.56;108086;1282;22526;-79
2023/12/19 00:28:06;;;;;;;3.60;1.90;;;;;;;6.98;52.82;97396.14;108103;1281;22863;-79
2023/12/19 00:30:37;;;;;;;2.20;1.30;;;;;;;6.95;53.00;97394.67;108166;1281;22533;-79
2023/12/19 00:33:06;;;;;;;4.00;2.20;;;;;;;6.91;52.86;97394.33;108109;1280;24209;-79
2023/12/19 00:35:37;;;;;;;3.00;1.50;;;;;;;6.88;52.45;97398.77;108090;1281;22526;-78
2023/12/19 00:38:05;;;;;;;2.50;1.40;;;;;;;6.89;52.54;97389.10;108122;1282;25692;-79
2023/12/19 00:40:36;;;;;;;3.10;1.70;;;;;;;6.91;52.28;97388.39;108102;1274;24392;-79
2023/12/19 00:43:05;;;;;;;3.60;2.30;;;;;;;6.90;52.25;97380.55;108139;1281;24204;-79
2023/12/19 00:45:36;;;;;;;3.20;1.80;;;;;;;6.87;52.13;97380.16;108118;1279;22544;-79
2023/12/19 00:48:07;;;;;;;2.90;2.10;;;;;;;6.86;52.20;97368.98;108119;1278;22513;-79
2023/12/19 00:50:35;;;;;;;4.20;2.30;;;;;;;6.84;52.51;97370.32;108132;1281;22601;-79
2023/12/19 00:53:06;;;;;;;5.90;2.80;;;;;;;6.79;52.41;97364.27;108122;1281;25430;-79
2023/12/19 00:55:35;;;;;;;5.00;2.30;;;;;;;6.73;52.91;97365.52;108055;1274;22552;-79
2023/12/19 00:58:03;;;;;;;2.30;1.50;;;;;;;6.68;52.99;97352.37;108132;1281;22553;-79
2023/12/19 01:00:34;;;;;;;4.40;2.20;;;;;;;6.68;52.33;97358.31;108111;1275;22577;-79
2023/12/19 01:03:04;;;;;;;2.70;1.80;;;;;;;6.67;52.91;97359.83;108136;1281;22527;-79
2023/12/19 01:05:33;;;;;;;3.80;1.70;;;;;;;6.62;52.93;97360.95;108099;1280;22534;-79
2023/12/19 01:08:06;;;;;;;4.30;2.40;;;;;;;6.61;52.96;97366.71;108110;1281;22541;-79
2023/12/19 01:10:35;;;;;;;3.50;2.00;;;;;;;6.59;52.77;97361.77;108113;1282;22556;-79
2023/12/19 01:13:03;;;;;;;3.30;1.90;;;;;;;6.61;52.63;97359.29;108154;1275;22674;-79
2023/12/19 01:15:32;;;;;;;4.90;1.80;;;;;;;6.61;52.42;97355.95;108127;1281;23237;-79
2023/12/19 01:18:02;;;;;;;3.90;1.60;;;;;;;6.64;52.07;97367.47;108103;1274;22537;-79
2023/12/19 01:20:31;;;;;;;1.90;1.40;;;;;;;6.63;52.14;97366.02;108097;1281;24213;-79
2023/12/19 01:23:01;;;;;;;3.80;1.80;;;;;;;6.57;52.03;97356.04;108123;1279;26730;-78
2023/12/19 01:25:29;;;;;;;2.80;1.50;;;;;;;6.59;52.25;97359.23;108070;1281;22611;-78
2023/12/19 01:28:01;;;;;;;5.20;2.00;;;;;;;6.54;52.37;97355.46;108116;1281;22564;-78
2023/12/19 01:30:30;;;;;;;4.60;2.30;;;;;;;6.48;52.33;97363.09;108093;1280;22649;-79
2023/12/19 01:32:58;;;;;;;3.00;1.80;;;;;;;6.46;52.02;97354.61;108141;1281;22495;-78
2023/12/19 01:35:27;;;;;;;4.80;2.20;;;;;;;6.53;51.87;97367.63;108070;1282;23805;-78
2023/12/19 01:37:55;;;;;;;2.50;1.10;;;;;;;6.51;51.85;97375.27;108143;1281;24257;-78
2023/12/19 01:40:23;;;;;;;3.20;1.70;;;;;;;6.57;51.70;97375.28;108136;1280;24518;-78
2023/12/19 01:42:53;;;;;;;4.10;2.00;;;;;;;6.58;51.72;97382.30;108117;1281;22535;-79
2023/12/19 01:45:23;;;;;;;3.90;2.20;;;;;;;6.52;51.79;97377.14;108119;1282;22537;-79
2023/12/19 01:47:50;;;;;;;;;;;;;;;6.48;52.01;97386.58;108162;1282;22524;-79
2023/12/19 01:50:21;;;;;;;4.20;1.70;;;;;;;6.44;52.08;97395.67;108101;1275;22553;-79
2023/12/19 01:52:51;;;;;;;3.40;2.00;;;;;;;6.42;52.14;97386.77;108112;1281;22719;-78
2023/12/19 01:55:22;;;;;;;4.20;2.20;;;;;;;6.39;52.20;97379.30;108107;1282;22541;-79
2023/12/19 01:57:51;;;;;;;4.80;2.30;;;;;;;6.30;52.49;97382.58;108123;1281;24104;-79
2023/12/19 02:00:20;;;;;;;3.20;2.20;;;;;;;6.23;52.67;97378.44;108102;1281;22538;-80
2023/12/19 02:02:50;;;;;;;4.40;2.70;;;;;;;6.19;52.79;97379.06;108114;1281;22527;-79
2023/12/19 02:05:19;;;;;;;3.90;1.80;;;;;;;6.25;52.92;97374.48;108099;1281;22670;-79
2023/12/19 02:07:48;;;;;;;4.60;2.40;;;;;;;6.29;52.22;97360.53;108098;1277;22524;-78
2023/12/19 02:10:17;;;;;;;3.00;1.40;;;;;;;6.36;51.83;97357.85;108076;1282;26478;-78
2023/12/19 02:12:46;;;;;;;2.20;1.70;;;;;;;6.41;51.45;97346.98;108110;1277;22541;-78
2023/12/19 02:15:14;;;;;;;2.50;1.00;;;;;;;6.40;51.99;97337.38;108097;1281;26559;-78
2023/12/19 02:17:43;;;;;;;1.60;0.90;;;;;;;6.38;51.10;97324.17;108090;1282;23861;-79
2023/12/19 02:20:14;;;;;;;3.30;2.00;;;;;;;6.37;51.36;97333.76;108029;1274;25608;-79
2023/12/19 02:22:43;;;;;;;4.60;1.70;;;;;;;6.30;51.82;97324.54;108075;1282;22552;-79
2023/12/19 02:25:11;;;;;;;4.20;1.90;;;;;;;6.22;52.12;97309.85;108120;1282;22689;-79
2023/12/19 02:27:40;;;;;;;1.50;1.20;;;;;;;6.22;52.36;97305.02;108072;1281;22793;-79
2023/12/19 02:30:10;;;;;;;2.30;1.30;;;;;;;6.26;51.98;97299.61;108105;1282;22530;-78
2023/12/19 02:32:42;;;;;;;1.90;1.00;;;;;;;6.32;52.06;97306.29;108152;1279;22592;-78
2023/12/19 02:35:11;;;;;;;4.20;1.80;;;;;;;6.36;51.96;97312.04;108087;1282;22533;-78
2023/12/19 02:37:40;;;;;;;3.30;1.50;;;;;;;6.37;52.29;97320.23;108064;1282;24357;-78
2023/12/19 02:40:13;;;;;;;3.30;1.70;;;;;;;6.31;52.42;97315.23;108092;1278;22655;-78
2023/12/19 02:42:42;;;;;;;3.10;1.60;;;;;;;6.28;52.21;97297.85;108220;1282;25421;-78
2023/12/19 02:45:11;;;;;;;3.40;2.00;;;;;;;6.29;52.26;97291.91;108140;1282;24225;-78
2023/12/19 02:47:39;;;;;;;;;;;;;;;6.22;52.46;97286.99;108095;1281;25593;-78
2023/12/19 02:50:08;;;;;;;2.50;1.40;;;;;;;6.19;52.10;97291.26;108112;1279;24328;-78
2023/12/19 02:52:37;;;;;;;3.30;1.30;;;;;;;6.20;52.07;97289.30;108103;1275;23903;-78
2023/12/19 02:55:07;;;;;;;2.50;1.30;;;;;;;6.20;52.04;97301.50;108084;1282;23645;-79
2023/12/19 02:57:34;;;;;;;;;;;;;;;6.15;52.16;97301.75;108177;1282;25880;-79
2023/12/19 03:00:05;;;;;;;;;;;;;;;6.13;52.23;97289.51;108113;1282;22503;-79
2023/12/19 03:02:33;;;;;;;;;;;;;;;6.15;52.02;97291.28;108107;1281;22514;-79
2023/12/19 03:05:05;;;;;;;2.60;1.40;;;;;;;6.20;51.70;97291.64;108119;1281;24269;-79
2023/12/19 03:07:32;;;;;;;;;;;;;;;6.24;51.77;97288.41;108108;1281;22536;-79
2023/12/19 03:10:05;;;;;;;3.20;1.80;;;;;;;6.22;51.68;97289.06;107996;1281;132241;-79
2023/12/19 03:12:36;;;;;;;2.40;1.70;;;;;;;6.26;51.47;97282.02;108125;1267;22532;-79
2023/12/19 03:15:06;;;;;;;2.90;1.70;;;;;;;6.23;51.76;97281.45;108106;1280;23032;-79
2023/12/19 03:17:34;;;;;;;2.30;1.40;;;;;;;6.16;51.89;97278.19;108126;1281;23404;-79
2023/12/19 03:20:09;;;;;;;3.00;1.80;;;;;;;6.10;51.98;97276.02;108068;1281;24210;-79
2023/12/19 03:22:42;;;;;;;2.70;1.40;;;;;;;6.12;51.66;97267.33;108198;1282;25567;-80
2023/12/19 03:25:13;;;;;;;2.40;1.40;;;;;;;6.17;51.49;97266.58;108099;1280;22567;-79
2023/12/19 03:27:41;;;;;;;3.00;1.50;;;;;;;6.28;50.63;97259.24;108126;1281;22555;-79
2023/12/19 03:30:12;;;;;;;2.90;1.50;;;;;;;6.35;50.53;97261.41;108128;1281;22603;-79
2023/12/19 03:32:40;;;;;;;1.70;1.30;;;;;;;6.34;50.65;97260.13;108141;1281;23002;-79
2023/12/19 03:35:11;;;;;;;2.80;1.40;;;;;;;6.26;50.87;97258.43;108086;1281;23988;-79
2023/12/19 03:37:39;;;;;;;1.60;0.90;;;;;;;6.23;50.71;97256.86;108096;1281;22532;-79
2023/12/19 03:40:09;;;;;;;1.00;0.80;;;;;;;6.30;50.37;97259.12;108091;1281;22572;-79
2023/12/19 03:42:40;;;;;;;2.50;0.70;;;;;;;6.38;49.44;97254.33;108099;1277;22792;-79
2023/12/19 03:45:09;;;;;;;1.00;0.90;;;;;;;6.52;49.55;97250.18;108111;1278;22556;-79
2023/12/19 03:47:40;;;;;;;1.40;1.00;;;;;;;6.55;49.40;97251.12;108131;1275;25549;-79
2023/12/19 03:50:10;;;;;;;1.40;1.00;;;;;;;6.54;49.64;97246.80;108113;1276;22742;-80
2023/12/19 03:52:39;;;;;;;1.90;1.10;;;;;;;6.58;49.25;97244.05;108103;1274;25257;-79
2023/12/19 03:55:08;;;;;;;2.50;0.80;;;;;;;6.65;49.22;97247.67;108097;1279;22569;-79
2023/12/19 03:57:36;;;;;;;;;;;;;;;6.67;49.08;97247.12;108173;1275;22530;-79
2023/12/19 04:00:08;;;;;;;1.90;1.10;;;;;;;6.71;49.03;97245.75;108136;1281;22532;-79
2023/12/19 04:02:39;;;;;;;1.40;0.90;;;;;;;6.72;48.74;97242.34;108216;1275;22552;-79
2023/12/19 04:05:11;;;;;;;1.00;0.80;;;;;;;6.73;48.98;97239.41;108098;1281;26851;-79
2023/12/19 04:07:39;;;;;;;2.80;1.60;;;;;;;6.72;48.99;97232.48;108111;1282;25215;-79
2023/12/19 04:10:09;;;;;;;1.70;1.20;;;;;;;6.74;48.70;97229.36;108184;1279;22559;-79
2023/12/19 04:12:40;;;;;;;2.60;1.10;;;;;;;6.80;48.56;97233.21;108134;1281;22545;-79
2023/12/19 04:15:13;;;;;;;1.90;0.90;;;;;;;6.87;48.07;97228.38;108147;1281;22542;-79
2023/12/19 04:17:41;;;;;;;1.80;1.30;;;;;;;6.97;48.24;97235.48;108138;1274;22534;-79
2023/12/19 04:20:14;;;;;;;1.40;0.70;;;;;;;6.98;48.54;97221.38;108147;1281;22550;-79
2023/12/19 04:22:43;;;;;;;1.30;0.80;;;;;;;6.95;48.46;97223.66;108228;1279;22563;-79
2023/12/19 04:25:12;;;;;;;2.60;0.80;;;;;;;6.97;48.32;97225.06;108115;1281;22532;-80
2023/12/19 04:27:40;;;;;;;2.20;1.10;;;;;;;7.01;48.10;97234.08;108120;1281;22558;-79
2023/12/19 04:30:11;;;;;;;2.30;0.90;;;;;;;7.07;47.56;97239.61;108134;1281;22629;-79
2023/12/19 04:32:41;;;;;;;2.40;1.30;;;;;;;7.15;47.56;97245.35;108178;1276;23200;-80
2023/12/19 04:35:10;;;;;;;2.40;1.40;;;;;;;7.11;47.97;97256.08;108135;1281;25483;-80
2023/12/19 04:37:39;;;;;;;3.40;1.30;;;;;;;7.09;47.92;97265.74;108108;1281;22532;-79
2023/12/19 04:40:09;;;;;;;1.50;1.00;;;;;;;7.07;48.03;97278.11;108151;1282;22882;-80
2023/12/19 04:42:40;;;;;;;1.80;1.30;;;;;;;7.05;48.09;97271.11;108146;1281;22631;-79
2023/12/19 04:45:12;;;;;;;1.70;1.30;;;;;;;6.98;48.47;97257.85;108175;1279;24168;-79
2023/12/19 04:47:41;;;;;;;1.30;1.00;;;;;;;6.89;48.77;97246.86;108253;1281;22530;-80
2023/12/19 04:50:11;;;;;;;2.30;1.40;;;;;;;6.86;48.79;97254.86;108205;1281;22532;-79
2023/12/19 04:52:40;;;;;;;2.40;1.70;;;;;;;6.82;48.64;97249.79;108249;1276;22533;-79
2023/12/19 04:55:10;;;;;;;3.10;1.30;;;;;;;6.74;48.97;97248.55;108257;1282;25492;-80
2023/12/19 04:57:39;;;;;;;2.90;1.70;;;;;;;6.65;49.27;97247.60;108266;1281;24531;-80
2023/12/19 05:00:14;;;;;;;6.50;1.60;;;;;;;6.55;49.36;97243.01;108273;1281;22534;-80
2023/12/19 05:02:42;;;;;;;2.20;0.90;;;;;;;6.47;49.60;97236.65;108291;1281;24950;-79
2023/12/19 05:05:13;;;;;;;2.20;1.50;;;;;;;6.44;49.77;97234.54;108268;1271;24680;-80
2023/12/19 05:07:42;;;;;;;2.50;1.30;;;;;;;6.44;50.15;97227.73;108286;1281;22528;-80
2023/12/19 05:10:13;;;;;;;2.50;1.40;;;;;;;6.46;49.86;97220.61;108336;1282;22586;-79
2023/12/19 05:12:41;;;;;;;3.20;1.60;;;;;;;6.49;49.89;97220.14;108288;1282;25523;-79
2023/12/19 05:15:11;;;;;;;2.30;1.40;;;;;;;6.45;50.19;97223.70;108275;1281;23952;-80
2023/12/19 05:17:40;;;;;;;2.30;1.40;;;;;;;6.44;50.00;97217.61;108329;1281;23003;-80
2023/12/19 05:20:11;;;;;;;3.20;1.10;;;;;;;6.42;50.02;97216.96;108329;1276;22538;-80
2023/12/19 05:22:40;;;;;;;2.10;1.10;;;;;;;6.40;49.96;97211.61;108219;1282;22584;-80
2023/12/19 05:25:09;;;;;;;1.40;0.80;;;;;;;6.45;49.89;97223.86;108224;1281;22538;-79
2023/12/19 05:27:39;;;;;;;;;;;;;;;6.55;49.54;97224.46;108182;1281;22507;-80
2023/12/19 05:30:13;;;;;;;2.20;1.40;;;;;;;6.73;48.97;97225.88;108211;1279;22603;-79
2023/12/19 05:32:44;;;;;;;2.20;1.30;;;;;;;6.91;48.69;97216.15;108218;1281;22548;-79
2023/12/19 05:35:12;;;;;;;2.60;1.30;;;;;;;6.98;49.03;97221.59;108143;1281;22762;-79
2023/12/19 05:37:43;;;;;;;6.60;4.20;;;;;;;6.95;48.90;97223.23;108142;1279;22531;-79
2023/12/19 05:40:12;;;;;;;;;;;;;;;7.00;48.81;97223.36;108163;1281;24183;-79
2023/12/19 05:42:41;;;;;;;3.10;1.80;;;;;;;7.08;48.55;97224.23;108174;1279;22626;-79
2023/12/19 05:45:13;;;;;;;2.40;1.50;;;;;;;7.12;49.10;97222.75;108112;1282;25864;-79
2023/12/19 05:47:43;;;;;;;2.80;1.30;;;;;;;7.07;49.28;97221.38;108126;1260;24938;-79
2023/12/19 05:50:12;;;;;;;4.10;1.90;;;;;;;7.07;49.27;97227.27;108141;1281;22535;-79
2023/12/19 05:52:48;;;;;;;3.00;2.20;;;;;;;7.06;49.35;97223.30;108098;1281;22547;-79
2023/12/19 05:55:17;;;;;;;5.00;3.40;;;;;;;7.22;48.66;97226.86;108120;1282;22544;-79
2023/12/19 05:57:45;;;;;;;2.80;1.50;;;;;;;7.27;49.18;97227.40;108089;1274;25258;-79
2023/12/19 06:00:17;;;;;;;2.90;1.80;;;;;;;7.22;48.78;97222.32;108098;1281;22523;-79
2023/12/19 06:02:49;;;;;;;2.00;1.50;;;;;;;7.19;48.62;97222.55;108160;1277;25446;-79
2023/12/19 06:05:19;;;;;;;2.80;1.40;;;;;;;7.11;48.62;97234.61;108161;1281;22527;-79
2023/12/19 06:07:47;;;;;;;2.10;1.50;;;;;;;7.03;48.58;97231.36;108128;1281;22549;-79
2023/12/19 06:10:16;;;;;;;2.70;1.70;;;;;;;6.95;49.00;97243.52;108151;1281;22606;-79
2023/12/19 06:12:44;;;;;;;3.50;1.90;;;;;;;6.83;49.20;97241.64;108098;1281;22513;-79
2023/12/19 06:15:14;;;;;;;2.70;1.60;;;;;;;6.71;49.39;97248.13;108113;1281;22656;-79
2023/12/19 06:17:45;;;;;;;3.50;1.60;;;;;;;6.60;49.78;97249.36;108070;1281;22620;-80
2023/12/19 06:20:14;;;;;;;2.90;1.90;;;;;;;6.45;50.06;97246.67;108086;1281;23990;-79
2023/12/19 06:22:42;;;;;;;1.80;1.40;;;;;;;6.32;50.24;97242.05;108123;1281;25294;-79
2023/12/19 06:25:11;;;;;;;1.90;1.40;;;;;;;6.19;50.72;97247.55;108081;1278;23650;-78
2023/12/19 06:27:42;;;;;;;2.40;1.80;;;;;;;6.04;51.02;97250.20;108108;1280;26362;-79
2023/12/19 06:30:14;;;;;;;4.10;1.70;;;;;;;5.89;51.29;97239.59;108127;1281;22536;-78
2023/12/19 06:32:47;;;;;;;3.40;1.90;;;;;;;5.83;51.59;97234.33;108110;1281;22593;-79
2023/12/19 06:35:15;;;;;;;3.50;2.00;;;;;;;5.73;51.75;97229.96;108055;1281;22541;-78
2023/12/19 06:37:44;;;;;;;4.50;2.00;;;;;;;5.65;52.17;97238.34;108106;1281;23834;-78
2023/12/19 06:40:14;;;;;;;2.40;1.70;;;;;;;5.60;52.23;97229.33;108128;1281;25436;-79
2023/12/19 06:42:43;;;;;;;3.60;2.00;;;;;;;5.60;52.62;97234.58;108111;1282;22539;-78
2023/12/19 06:45:12;;;;;;;5.40;2.80;;;;;;;5.59;52.72;97232.62;108115;1281;24225;-78
2023/12/19 06:47:41;;;;;;;7.10;2.90;;;;;;;5.58;52.97;97234.59;108091;1273;28296;-78
2023/12/19 06:50:12;;;;;;;4.80;2.70;;;;;;;5.59;53.05;97233.98;108096;1281;22509;-78
2023/12/19 06:52:43;;;;;;;4.00;2.40;;;;;;;5.60;53.37;97229.27;108072;1276;22781;-78
2023/12/19 06:55:12;;;;;;;4.00;2.20;;;;;;;5.60;53.48;97230.17;108098;1281;22546;-79
2023/12/19 06:57:40;;;;;;;4.00;2.20;;;;;;;5.61;53.56;97221.94;108113;1279;22803;-78
2023/12/19 07:00:10;;;;;;;3.10;1.90;;;;;;;5.62;53.63;97213.69;108133;1281;25508;-78
2023/12/19 07:02:39;;;;;;;3.70;2.30;;;;;;;5.68;53.96;97207.77;108135;1281;22535;-78
2023/12/19 07:05:09;;;;;;;3.00;1.90;;;;;;;5.74;54.12;97206.04;108112;1281;25438;-78
2023/12/19 07:07:38;;;;;;;4.30;2.30;;;;;;;5.78;54.09;97198.67;108197;1277;26808;-78
2023/12/19 07:10:09;;;;;;;2.80;1.70;;;;;;;5.82;54.09;97200.02;108120;1281;22559;-78
2023/12/19 07:12:39;;;;;;;3.00;2.00;;;;;;;5.91;54.35;97203.10;108150;1281;23260;-79
2023/12/19 07:15:10;;;;;;;3.70;1.80;;;;;;;6.06;54.50;97204.61;108142;1281;22544;-79
2023/12/19 07:17:38;;;;;;;4.00;2.00;;;;;;;6.30;54.48;97197.84;108162;1276;22568;-79
2023/12/19 07:20:09;;;;;;;3.90;2.00;;;;;;;6.50;54.13;97195.77;108233;1281;24223;-79
2023/12/19 07:22:42;;;;;;;3.40;2.10;;;;;;;6.67;54.24;97186.52;108214;1282;22532;-79
2023/12/19 07:25:10;;;;;;;5.00;2.30;;;;;;;6.87;54.07;97180.46;108209;1277;24256;-79
2023/12/19 07:27:39;;;;;;;4.40;2.20;;;;;;;7.03;53.90;97171.48;108133;1281;22549;-79
2023/12/19 07:30:13;;;;;;;2.50;1.20;;;;;;;7.10;53.78;97168.05;108216;1281;22613;-79
2023/12/19 07:32:44;;;;;;;2.50;1.50;;;;;;;7.25;53.41;97164.61;108232;1281;23773;-79
2023/12/19 07:35:14;;;;;;;1.90;1.30;;;;;;;7.38;53.12;97162.52;108253;1277;22567;-79
2023/12/19 07:37:43;;;;;;;3.50;2.00;;;;;;;7.54;52.51;97171.55;108255;1275;22543;-79
2023/12/19 07:40:14;;;;;;;2.60;1.70;;;;;;;7.67;52.23;97177.52;108124;1280;24224;-78
2023/12/19 07:42:44;;;;;;;3.90;1.80;;;;;;;7.78;52.15;97177.33;108114;1281;23196;-78
2023/12/19 07:45:13;;;;;;;5.20;2.70;;;;;;;7.84;52.25;97171.69;108065;1277;22530;-79
2023/12/19 07:47:42;;;;;;;2.20;1.60;;;;;;;7.89;52.21;97173.83;108106;1277;23878;-79
2023/12/19 07:50:11;;;;;;;3.00;1.90;;;;;;;7.97;52.02;97176.44;108089;1277;25748;-78
2023/12/19 07:52:39;;;;;;;3.50;2.20;;;;;;;7.98;51.82;97174.91;108096;1277;22540;-79
2023/12/19 07:55:10;;;;;;;4.00;2.00;;;;;;;7.89;51.75;97170.39;108110;1278;22553;-79
2023/12/19 07:57:39;;;;;;;5.70;2.60;;;;;;;7.84;51.85;97171.90;108101;1276;22593;-79
2023/12/19 08:00:11;;;;;;;3.60;2.30;;;;;;;7.75;52.00;97174.92;108131;1281;23023;-78
2023/12/19 08:02:39;;;;;;;5.10;2.60;;;;;;;7.64;52.01;97176.22;108197;1281;22544;-79
2023/12/19 08:05:12;;;;;;;4.20;2.40;;;;;;;7.62;52.16;97177.26;108112;1261;23175;-79
2023/12/19 08:07:40;;;;;;;4.40;2.50;;;;;;;7.59;52.26;97187.38;108162;1281;26621;-79
2023/12/19 08:10:12;;;;;;;3.60;2.40;;;;;;;7.52;52.32;97184.39;108164;1279;22541;-78
2023/12/19 08:12:40;;;;;;;4.40;2.30;;;;;;;7.57;52.53;97174.85;108116;1279;23504;-78
2023/12/19 08:15:10;;;;;;;4.10;2.70;;;;;;;7.83;52.80;97163.50;108136;1280;22547;-79
2023/12/19 08:17:39;;;;;;;6.00;2.90;;;;;;;8.22;52.90;97161.17;108125;1280;22659;-79
2023/12/19 08:20:10;;;;;;;6.70;3.10;;;;;;;8.52;52.89;97161.44;108096;1275;22576;-79
2023/12/19 08:22:38;;;;;;;4.40;2.50;;;;;;;8.59;52.57;97154.27;108107;1281;23769;-79
2023/12/19 08:25:08;;;;;;;3.80;2.40;;;;;;;8.69;52.43;97154.96;108173;1276;22553;-78
2023/12/19 08:27:37;;;;;;;4.70;3.10;;;;;;;8.83;52.13;97154.77;108104;1276;22553;-79
2023/12/19 08:30:08;;;;;;;2.40;1.60;;;;;;;8.88;52.03;97151.27;108169;1281;23070;-79
2023/12/19 08:32:38;;;;;;;3.40;1.70;;;;;;;8.92;51.87;97147.52;108149;1281;22658;-79
2023/12/19 08:35:08;;;;;;;2.90;2.00;;;;;;;9.02;51.68;97154.21;108127;1275;22549;-79
2023/12/19 08:37:37;;;;;;;3.00;1.70;;;;;;;9.06;51.20;97161.38;108172;1281;23188;-79
2023/12/19 08:40:08;;;;;;;3.20;1.90;;;;;;;9.13;50.41;97163.38;108161;1281;24023;-79
2023/12/19 08:42:37;;;;;;;2.60;1.80;;;;;;;9.21;50.73;97164.39;108042;1281;24196;-79
2023/12/19 08:45:13;;;;;;;2.80;1.40;;;;;;;9.18;50.50;97164.90;108193;1281;24223;-79
2023/12/19 08:47:41;;;;;;;2.90;1.90;;;;;;;9.16;50.41;97167.79;108131;1277;22533;-79
2023/12/19 08:50:12;;;;;;;2.80;1.90;;;;;;;9.12;50.53;97160.77;108150;1276;22539;-79
2023/12/19 08:52:42;;;;;;;3.50;2.00;;;;;;;9.10;50.62;97160.34;108289;1274;26144;-79
2023/12/19 08:55:13;;;;;;;2.60;1.70;;;;;;;9.11;50.60;97150.98;108168;1276;25111;-79
2023/12/19 08:57:45;;;;;;;2.60;2.00;;;;;;;9.16;50.36;97154.58;108149;1281;22547;-79
2023/12/19 09:00:17;;;;;;;3.40;2.30;;;;;;;9.19;50.41;97153.63;108214;1279;24224;-79
2023/12/19 09:02:46;;;;;;;3.10;1.90;;;;;;;9.25;50.20;97141.28;108120;1274;25310;-79
2023/12/19 09:05:17;;;;;;;3.80;2.30;;;;;;;9.36;50.11;97146.41;108144;1281;22530;-79
2023/12/19 09:07:47;;;;;;;5.20;2.60;;;;;;;9.41;49.90;97140.19;108124;1274;26053;-79
2023/12/19 09:10:16;;;;;;;3.80;2.00;;;;;;;9.36;49.86;97135.62;108171;1281;22544;-79
2023/12/19 09:12:44;;;;;;;3.30;1.80;;;;;;;9.27;49.90;97127.48;108124;1281;22541;-79
2023/12/19 09:15:13;;;;;;;2.50;1.70;;;;;;;9.24;49.68;97132.49;108150;1259;25453;-79
2023/12/19 09:17:42;;;;;;;4.10;2.00;;;;;;;9.27;48.47;97123.84;108196;1281;22549;-79
2023/12/19 09:20:12;;;;;;;3.90;2.60;;;;;;;9.35;49.08;97119.11;108165;1281;22547;-79
2023/12/19 09:22:40;;;;;;;3.20;2.10;;;;;;;9.36;49.16;97118.53;108212;1281;24236;-79
2023/12/19 09:25:14;;;;;;;3.50;2.30;;;;;;;9.34;49.34;97110.16;108248;1274;22478;-79
2023/12/19 09:27:46;;;;;;;2.70;1.90;;;;;;;9.34;49.40;97105.88;108226;1275;22534;-79
2023/12/19 09:30:16;;;;;;;3.70;2.20;;;;;;;9.37;49.58;97106.84;108281;1281;23313;-79
2023/12/19 09:32:44;;;;;;;4.10;2.50;;;;;;;9.38;49.50;97104.62;108287;1281;22526;-79
2023/12/19 09:35:12;;;;;;;5.20;2.30;;;;;;;9.40;49.19;97104.15;108292;1281;22536;-79
2023/12/19 09:37:41;;;;;;;3.90;2.30;;;;;;;9.43;49.18;97092.52;108364;1281;25454;-79
2023/12/19 09:40:17;;;;;;;2.90;1.90;;;;;;;9.46;49.09;97084.61;108317;1281;22586;-79
2023/12/19 09:42:46;;;;;;;4.80;2.70;;;;;;;9.48;49.00;97079.95;108288;1276;22592;-79
2023/12/19 09:45:14;;;;;;;4.60;2.30;;;;;;;9.65;49.01;97076.40;108196;1281;24252;-79
2023/12/19 09:47:53;;;;;;;1.80;1.20;;;;;;;9.85;48.20;97074.14;108156;1281;22990;-79
2023/12/19 09:50:25;;;;;;;2.50;1.60;;;;;;;9.97;47.54;97074.73;108180;1281;24978;-79
2023/12/19 09:52:55;;;;;;;3.60;2.00;;;;;;;10.09;47.89;97069.35;108145;1281;22541;-79
2023/12/19 09:55:25;;;;;;;6.00;2.70;;;;;;;10.23;47.87;97070.92;108195;1274;22566;-79
2023/12/19 09:57:55;;;;;;;4.80;2.30;;;;;;;10.36;47.10;97059.54;108235;1274;25474;-79
2023/12/19 10:00:25;;;;;;;4.90;1.90;;;;;;;10.49;46.83;97055.08;108153;1281;22526;-79
2023/12/19 10:02:54;;;;;;;2.30;1.50;;;;;;;10.66;45.38;97047.27;108112;1281;22574;-79
2023/12/19 10:05:23;;;;;;;1.40;1.10;;;;;;;10.85;45.99;97036.89;108114;1267;22544;-79
2023/12/19 10:07:51;;;;;;;2.40;1.30;;;;;;;11.06;44.77;97035.35;108116;1281;22603;-79
2023/12/19 10:10:21;;;;;;;1.50;1.10;;;;;;;11.24;45.19;97032.52;108120;1281;24091;-79
2023/12/19 10:12:50;;;;;;;2.00;1.30;;;;;;;11.40;44.42;97031.13;108089;1260;22596;-79
2023/12/19 10:15:19;;;;;;;3.10;1.80;;;;;;;11.42;42.96;97019.66;108136;1281;22491;-79
2023/12/19 10:18:10;;;;;;;2.70;1.40;;;;;;;11.29;43.50;97019.23;108067;1274;25676;-79
2023/12/19 10:20:42;;;;;;;2.90;1.40;;;;;;;11.24;43.15;97006.61;108178;1281;22534;-79
2023/12/19 10:23:11;;;;;;;2.60;1.40;;;;;;;11.24;43.01;97000.63;108084;1281;23309;-79
2023/12/19 10:25:39;;;;;;;2.50;1.40;;;;;;;11.35;43.49;96998.34;108084;1281;25418;-78
2023/12/19 10:28:08;;;;;;;3.30;1.70;;;;;;;11.50;43.14;96998.22;108083;1274;22542;-79
2023/12/19 10:30:37;;;;;;;1.40;1.30;;;;;;;11.66;43.26;96993.08;108136;1275;22537;-79
2023/12/19 10:33:05;;;;;;;2.40;1.50;;;;;;;11.75;42.51;96985.73;108112;1281;22542;-79
2023/12/19 10:35:38;;;;;;;3.70;1.40;;;;;;;11.83;42.61;96977.05;108065;1281;22505;-79
2023/12/19 10:38:07;;;;;;;2.80;1.60;;;;;;;11.90;42.17;96979.13;108117;1274;25300;-79
2023/12/19 10:40:36;;;;;;;3.10;1.70;;;;;;;11.90;42.15;96964.94;108102;1275;22532;-79
2023/12/19 10:43:05;;;;;;;2.60;1.70;;;;;;;11.96;41.97;96965.27;108103;1281;25340;-79
2023/12/19 10:45:34;;;;;;;2.40;1.50;;;;;;;11.98;42.23;96956.87;108043;1281;25811;-79
2023/12/19 10:48:04;;;;;;;4.10;2.00;;;;;;;11.93;42.16;96954.28;108112;1281;22567;-79
2023/12/19 10:50:33;;;;;;;3.60;2.00;;;;;;;11.87;42.69;96954.50;108181;1275;22647;-79
2023/12/19 10:53:09;;;;;;;2.60;1.40;;;;;;;11.77;41.68;96947.80;108127;1274;22544;-79
2023/12/19 10:55:49;;;;;;;4.50;2.60;;;;;;;11.71;42.20;96945.77;108071;1281;24257;-78
2023/12/19 10:58:21;;;;;;;4.50;2.50;;;;;;;11.88;42.82;96938.61;108083;1274;22670;-79
2023/12/19 11:00:51;;;;;;;5.60;2.80;;;;;;;11.92;42.36;96946.32;108118;1275;24239;-79
2023/12/19 11:03:30;;;;;;;5.20;2.60;;;;;;;11.85;41.87;96936.66;108149;1281;22570;-79
2023/12/19 11:06:02;;;;;;;3.60;2.30;;;;;;;11.72;41.77;96932.42;108070;1281;22579;-79
2023/12/19 11:08:33;;;;;;;5.10;2.60;;;;;;;11.61;42.13;96925.12;108136;1276;22547;-79
2023/12/19 11:11:09;;;;;;;5.70;2.90;;;;;;;11.52;42.10;96925.39;108100;1281;23869;-79
2023/12/19 11:13:42;;;;;;;4.70;2.70;;;;;;;11.54;43.09;96927.50;108102;1274;25422;-79
2023/12/19 11:16:17;;;;;;;4.70;2.50;;;;;;;11.69;42.83;96909.77;108141;1281;23184;-79
2023/12/19 11:18:55;;;;;;;3.60;1.70;;;;;;;11.74;42.28;96918.60;108141;1281;23996;-79
2023/12/19 11:21:31;;;;;;;4.40;2.00;;;;;;;11.65;41.74;96908.67;108162;1281;22540;-79
2023/12/19 11:24:07;;;;;;;2.70;1.30;;;;;;;11.49;42.12;96910.86;108124;1281;22618;-79
2023/12/19 11:26:41;;;;;;;2.60;1.10;;;;;;;11.35;42.10;96902.36;108114;1275;23210;-79
2023/12/19 11:29:42;;;;;;;4.00;1.70;;;;;;;11.24;42.02;96899.40;108069;1274;23797;-79
2023/12/19 11:32:37;;;;;;;3.10;1.60;;;;;;;11.28;42.25;96893.17;108067;1275;22558;-79
2023/12/19 11:35:11;;;;;;;1.60;1.00;;;;;;;11.25;42.39;96896.63;108125;1281;22530;-79
2023/12/19 11:37:43;;;;;;;3.60;1.30;;;;;;;11.14;42.04;96896.98;108145;1275;22533;-79
2023/12/19 11:40:37;;;;;;;2.60;1.30;;;;;;;11.11;42.27;96895.91;108106;1274;22539;-79
2023/12/19 11:43:06;;;;;;;3.00;1.40;;;;;;;11.19;42.57;96889.52;108137;1281;22536;-79
2023/12/19 11:45:37;;;;;;;2.90;1.50;;;;;;;11.30;43.22;96890.77;108087;1281;23184;-78
2023/12/19 11:48:39;;;;;;;3.60;2.10;;;;;;;11.37;42.77;96881.11;108160;1281;22524;-79